sensor_id;sensor_type;location;lat;lon;timestamp;pressure;altitude;pressure_sealevel;temperature;humidity
37972;BME280;23794;48.234;8.344;2023-04-25T00:02:13;93675.25;;;5.95;70.57
37972;BME280;23794;48.234;8.344;2023-04-25T00:04:42;93676.44;;;5.98;70.36
37972;BME280;23794;48.234;8.344;2023-04-25T00:07:10;93663.22;;;5.93;70.53
37972;BME280;23794;48.234;8.344;2023-04-25T00:09:36;93665.16;;;5.92;69.65
37972;BME280;23794;48.234;8.344;2023-04-25T00:12:03;93671.38;;;5.96;70.17
37972;BME280;23794;48.234;8.344;2023-04-25T00:14:30;93671.78;;;5.98;71.32
37972;BME280;23794;48.234;8.344;2023-04-25T00:16:56;93679.91;;;5.95;72.22
37972;BME280;23794;48.234;8.344;2023-04-25T00:19:24;93676.44;;;6.02;72.19
37972;BME280;23794;48.234;8.344;2023-04-25T00:21:51;93694.31;;;5.99;73.40
37972;BME280;23794;48.234;8.344;2023-04-25T00:24:17;93677.56;;;5.86;72.61
37972;BME280;23794;48.234;8.344;2023-04-25T00:26:44;93671.28;;;5.68;72.46
37972;BME280;23794;48.234;8.344;2023-04-25T00:29:10;93672.06;;;5.68;72.61
37972;BME280;23794;48.234;8.344;2023-04-25T00:31:37;93669.72;;;5.59;73.59
37972;BME280;23794;48.234;8.344;2023-04-25T00:34:06;93681.25;;;5.42;75.95
37972;BME280;23794;48.234;8.344;2023-04-25T00:36:34;93680.47;;;5.34;76.90
37972;BME280;23794;48.234;8.344;2023-04-25T00:39:01;93678.13;;;5.36;77.75
37972;BME280;23794;48.234;8.344;2023-04-25T00:41:28;93683.56;;;5.40;76.02
37972;BME280;23794;48.234;8.344;2023-04-25T00:43:56;93672.34;;;5.41;76.22
37972;BME280;23794;48.234;8.344;2023-04-25T00:46:23;93678.91;;;5.37;76.01
37972;BME280;23794;48.234;8.344;2023-04-25T00:48:50;93664.94;;;5.38;76.01
37972;BME280;23794;48.234;8.344;2023-04-25T00:51:20;93660.63;;;5.30;76.36
37972;BME280;23794;48.234;8.344;2023-04-25T00:53:51;93668.34;;;5.21;76.65
37972;BME280;23794;48.234;8.344;2023-04-25T00:56:19;93673.03;;;5.27;76.47
37972;BME280;23794;48.234;8.344;2023-04-25T00:58:47;93665.63;;;5.21;77.19
37972;BME280;23794;48.234;8.344;2023-04-25T01:01:14;93671.47;;;5.26;77.10
37972;BME280;23794;48.234;8.344;2023-04-25T01:03:40;93669.91;;;5.22;78.40
37972;BME280;23794;48.234;8.344;2023-04-25T01:06:09;93671.06;;;5.24;78.77
37972;BME280;23794;48.234;8.344;2023-04-25T01:08:37;93664.47;;;5.25;78.24
37972;BME280;23794;48.234;8.344;2023-04-25T01:11:05;93657.13;;;5.26;78.67
37972;BME280;23794;48.234;8.344;2023-04-25T01:13:32;93658.69;;;5.27;78.29
37972;BME280;23794;48.234;8.344;2023-04-25T01:16:00;93672.59;;;5.18;78.67
37972;BME280;23794;48.234;8.344;2023-04-25T01:18:26;93660.59;;;5.23;78.91
37972;BME280;23794;48.234;8.344;2023-04-25T01:20:54;93658.63;;;5.19;77.49
37972;BME280;23794;48.234;8.344;2023-04-25T01:23:21;93657.41;;;5.10;78.50
37972;BME280;23794;48.234;8.344;2023-04-25T01:25:49;93658.22;;;5.10;78.70
37972;BME280;23794;48.234;8.344;2023-04-25T01:28:16;93660.13;;;5.10;78.55
37972;BME280;23794;48.234;8.344;2023-04-25T01:30:43;93658.59;;;5.12;78.04
37972;BME280;23794;48.234;8.344;2023-04-25T01:33:10;93662.09;;;5.13;78.54
37972;BME280;23794;48.234;8.344;2023-04-25T01:35:37;93657.84;;;5.19;78.56
37972;BME280;23794;48.234;8.344;2023-04-25T01:38:04;93665.56;;;5.10;79.16
37972;BME280;23794;48.234;8.344;2023-04-25T01:40:33;93660.88;;;5.03;79.93
37972;BME280;23794;48.234;8.344;2023-04-25T01:43:00;93668.69;;;5.12;79.28
37972;BME280;23794;48.234;8.344;2023-04-25T01:45:27;93659.38;;;5.13;79.24
37972;BME280;23794;48.234;8.344;2023-04-25T01:47:54;93660.94;;;5.10;79.27
37972;BME280;23794;48.234;8.344;2023-04-25T01:50:22;93663.63;;;5.10;78.65
37972;BME280;23794;48.234;8.344;2023-04-25T01:52:49;93658.16;;;4.99;79.40
37972;BME280;23794;48.234;8.344;2023-04-25T01:55:16;93655.72;;;4.94;79.54
37972;BME280;23794;48.234;8.344;2023-04-25T01:57:52;93652.66;;;4.92;79.61
37972;BME280;23794;48.234;8.344;2023-04-25T02:00:25;93651.09;;;4.95;78.73
37972;BME280;23794;48.234;8.344;2023-04-25T02:02:51;93660.00;;;4.92;79.36
37972;BME280;23794;48.234;8.344;2023-04-25T02:05:25;93657.22;;;4.84;79.99
37972;BME280;23794;48.234;8.344;2023-04-25T02:07:52;93661.88;;;4.84;80.46
37972;BME280;23794;48.234;8.344;2023-04-25T02:10:19;93656.00;;;4.75;80.84
37972;BME280;23794;48.234;8.344;2023-04-25T02:13:08;93653.25;;;4.67;80.07
37972;BME280;23794;48.234;8.344;2023-04-25T02:15:41;93647.44;;;4.72;79.15
37972;BME280;23794;48.234;8.344;2023-04-25T02:18:16;93655.97;;;4.71;79.49
37972;BME280;23794;48.234;8.344;2023-04-25T02:20:43;93648.25;;;4.73;79.05
37972;BME280;23794;48.234;8.344;2023-04-25T02:23:10;93638.97;;;4.78;78.65
37972;BME280;23794;48.234;8.344;2023-04-25T02:25:37;93628.88;;;4.75;79.46
37972;BME280;23794;48.234;8.344;2023-04-25T02:28:03;93630.41;;;4.72;79.00
37972;BME280;23794;48.234;8.344;2023-04-25T02:30:30;93633.03;;;4.58;80.42
37972;BME280;23794;48.234;8.344;2023-04-25T02:32:57;93632.56;;;4.48;80.57
37972;BME280;23794;48.234;8.344;2023-04-25T02:35:23;93629.91;;;4.55;79.77
37972;BME280;23794;48.234;8.344;2023-04-25T02:37:53;93625.25;;;4.56;79.22
37972;BME280;23794;48.234;8.344;2023-04-25T02:40:19;93626.00;;;4.53;78.64
37972;BME280;23794;48.234;8.344;2023-04-25T02:42:46;93628.19;;;4.36;78.66
37972;BME280;23794;48.234;8.344;2023-04-25T02:45:12;93625.00;;;4.23;78.64
37972;BME280;23794;48.234;8.344;2023-04-25T02:47:39;93626.84;;;4.12;78.79
37972;BME280;23794;48.234;8.344;2023-04-25T02:50:06;93633.25;;;3.93;80.21
37972;BME280;23794;48.234;8.344;2023-04-25T02:52:33;93634.03;;;3.97;80.20
37972;BME280;23794;48.234;8.344;2023-04-25T02:55:13;93636.72;;;3.94;80.47
37972;BME280;23794;48.234;8.344;2023-04-25T02:57:41;93637.47;;;3.90;79.77
37972;BME280;23794;48.234;8.344;2023-04-25T03:00:11;93625.91;;;3.97;79.21
37972;BME280;23794;48.234;8.344;2023-04-25T03:02:40;93625.56;;;4.02;79.13
37972;BME280;23794;48.234;8.344;2023-04-25T03:05:07;93625.56;;;4.02;79.19
37972;BME280;23794;48.234;8.344;2023-04-25T03:07:34;93626.31;;;3.99;79.71
37972;BME280;23794;48.234;8.344;2023-04-25T03:10:01;93614.34;;;4.00;80.53
37972;BME280;23794;48.234;8.344;2023-04-25T03:12:30;93618.63;;;4.01;81.31
37972;BME280;23794;48.234;8.344;2023-04-25T03:14:57;93621.28;;;3.98;81.69
37972;BME280;23794;48.234;8.344;2023-04-25T03:17:23;93611.28;;;4.05;81.56
37972;BME280;23794;48.234;8.344;2023-04-25T03:19:50;93614.72;;;4.02;81.53
37972;BME280;23794;48.234;8.344;2023-04-25T03:22:17;93604.72;;;4.06;81.01
37972;BME280;23794;48.234;8.344;2023-04-25T03:24:43;93609.41;;;4.10;80.58
37972;BME280;23794;48.234;8.344;2023-04-25T03:27:10;93600.09;;;4.11;80.66
37972;BME280;23794;48.234;8.344;2023-04-25T03:29:36;93610.16;;;4.10;80.95
37972;BME280;23794;48.234;8.344;2023-04-25T03:32:04;93601.97;;;4.03;80.88
37972;BME280;23794;48.234;8.344;2023-04-25T03:34:30;93604.25;;;4.01;80.55
37972;BME280;23794;48.234;8.344;2023-04-25T03:36:57;93608.91;;;4.00;80.39
37972;BME280;23794;48.234;8.344;2023-04-25T03:39:24;93606.25;;;4.04;80.63
37972;BME280;23794;48.234;8.344;2023-04-25T03:41:52;93602.78;;;4.11;80.74
37972;BME280;23794;48.234;8.344;2023-04-25T03:44:19;93605.56;;;4.18;79.40
37972;BME280;23794;48.234;8.344;2023-04-25T03:46:46;93599.78;;;4.19;78.92
37972;BME280;23794;48.234;8.344;2023-04-25T03:49:13;93594.69;;;4.14;79.47
37972;BME280;23794;48.234;8.344;2023-04-25T03:52:03;93602.09;;;4.17;79.96
37972;BME280;23794;48.234;8.344;2023-04-25T03:54:35;93600.94;;;4.18;80.54
37972;BME280;23794;48.234;8.344;2023-04-25T03:57:05;93600.19;;;4.25;79.85
37972;BME280;23794;48.234;8.344;2023-04-25T03:59:35;93605.25;;;4.23;79.53
37972;BME280;23794;48.234;8.344;2023-04-25T04:02:02;93610.22;;;4.17;80.88
37972;BME280;23794;48.234;8.344;2023-04-25T04:04:31;93610.66;;;4.23;80.13
37972;BME280;23794;48.234;8.344;2023-04-25T04:06:59;93606.06;;;4.31;79.59
37972;BME280;23794;48.234;8.344;2023-04-25T04:09:29;93591.34;;;4.32;79.36
37972;BME280;23794;48.234;8.344;2023-04-25T04:11:58;93602.59;;;4.30;80.19
37972;BME280;23794;48.234;8.344;2023-04-25T04:14:24;93605.75;;;4.36;79.67
37972;BME280;23794;48.234;8.344;2023-04-25T04:16:51;93599.91;;;4.34;80.49
37972;BME280;23794;48.234;8.344;2023-04-25T04:19:18;93602.66;;;4.37;79.33
37972;BME280;23794;48.234;8.344;2023-04-25T04:21:52;93598.31;;;4.29;80.63
37972;BME280;23794;48.234;8.344;2023-04-25T04:24:19;93595.19;;;4.27;80.72
37972;BME280;23794;48.234;8.344;2023-04-25T04:26:51;93594.00;;;4.21;81.48
37972;BME280;23794;48.234;8.344;2023-04-25T04:29:50;93592.88;;;4.26;81.33
37972;BME280;23794;48.234;8.344;2023-04-25T04:32:24;93588.72;;;4.43;80.40
37972;BME280;23794;48.234;8.344;2023-04-25T04:34:52;93580.06;;;4.26;80.67
37972;BME280;23794;48.234;8.344;2023-04-25T04:37:23;93581.19;;;4.21;80.66
37972;BME280;23794;48.234;8.344;2023-04-25T04:39:50;93578.47;;;4.18;80.53
37972;BME280;23794;48.234;8.344;2023-04-25T04:42:29;93578.78;;;4.09;80.53
37972;BME280;23794;48.234;8.344;2023-04-25T04:45:23;93579.84;;;3.97;80.83
37972;BME280;23794;48.234;8.344;2023-04-25T04:48:06;93585.19;;;3.90;80.93
37972;BME280;23794;48.234;8.344;2023-04-25T04:50:53;93574.75;;;3.88;80.48
37972;BME280;23794;48.234;8.344;2023-04-25T04:53:38;93586.06;;;3.98;79.40
37972;BME280;23794;48.234;8.344;2023-04-25T04:56:15;93586.09;;;4.01;79.09
37972;BME280;23794;48.234;8.344;2023-04-25T04:59:14;93589.53;;;3.98;79.24
37972;BME280;23794;48.234;8.344;2023-04-25T05:01:59;93592.91;;;3.88;79.62
37972;BME280;23794;48.234;8.344;2023-04-25T05:04:48;93592.03;;;3.76;81.00
37972;BME280;23794;48.234;8.344;2023-04-25T05:07:46;93588.31;;;3.92;81.51
37972;BME280;23794;48.234;8.344;2023-04-25T05:10:27;93599.59;;;3.98;80.97
37972;BME280;23794;48.234;8.344;2023-04-25T05:13:03;93597.38;;;4.11;81.19
37972;BME280;23794;48.234;8.344;2023-04-25T05:15:59;93598.66;;;4.24;80.81
37972;BME280;23794;48.234;8.344;2023-04-25T05:18:49;93600.72;;;4.42;79.44
37972;BME280;23794;48.234;8.344;2023-04-25T05:21:34;93602.34;;;4.50;78.60
37972;BME280;23794;48.234;8.344;2023-04-25T05:24:09;93596.63;;;4.62;78.04
37972;BME280;23794;48.234;8.344;2023-04-25T05:26:54;93584.59;;;4.63;77.86
37972;BME280;23794;48.234;8.344;2023-04-25T05:29:27;93588.16;;;4.71;78.26
37972;BME280;23794;48.234;8.344;2023-04-25T05:32:20;93581.63;;;4.79;79.37
37972;BME280;23794;48.234;8.344;2023-04-25T05:34:48;93583.22;;;4.91;78.68
37972;BME280;23794;48.234;8.344;2023-04-25T05:37:24;93581.28;;;4.92;78.67
37972;BME280;23794;48.234;8.344;2023-04-25T05:39:55;93595.25;;;4.90;78.66
37972;BME280;23794;48.234;8.344;2023-04-25T05:42:33;93578.91;;;4.83;78.28
37972;BME280;23794;48.234;8.344;2023-04-25T05:45:07;93578.13;;;4.82;78.83
37972;BME280;23794;48.234;8.344;2023-04-25T05:47:44;93577.50;;;5.03;78.61
37972;BME280;23794;48.234;8.344;2023-04-25T05:50:18;93577.53;;;5.14;78.31
37972;BME280;23794;48.234;8.344;2023-04-25T05:52:54;93572.53;;;5.24;78.18
37972;BME280;23794;48.234;8.344;2023-04-25T05:55:47;93571.44;;;5.36;77.30
37972;BME280;23794;48.234;8.344;2023-04-25T05:58:20;93570.25;;;5.29;77.24
37972;BME280;23794;48.234;8.344;2023-04-25T06:00:46;93573.34;;;5.31;77.68
37972;BME280;23794;48.234;8.344;2023-04-25T06:03:13;93573.38;;;5.46;77.19
37972;BME280;23794;48.234;8.344;2023-04-25T06:05:46;93581.94;;;5.44;77.40
37972;BME280;23794;48.234;8.344;2023-04-25T06:08:13;93578.47;;;5.58;77.24
37972;BME280;23794;48.234;8.344;2023-04-25T06:10:39;93575.00;;;5.69;77.05
37972;BME280;23794;48.234;8.344;2023-04-25T06:13:06;93581.25;;;5.87;76.39
37972;BME280;23794;48.234;8.344;2023-04-25T06:15:34;93578.94;;;6.00;75.79
37972;BME280;23794;48.234;8.344;2023-04-25T06:18:01;93581.28;;;5.98;75.55
37972;BME280;23794;48.234;8.344;2023-04-25T06:20:28;93586.69;;;5.84;75.61
37972;BME280;23794;48.234;8.344;2023-04-25T06:22:57;93576.59;;;5.84;76.67
37972;BME280;23794;48.234;8.344;2023-04-25T06:25:33;93575.44;;;5.89;77.08
37972;BME280;23794;48.234;8.344;2023-04-25T06:28:01;93578.16;;;6.00;76.66
37972;BME280;23794;48.234;8.344;2023-04-25T06:30:28;93568.09;;;6.00;76.38
37972;BME280;23794;48.234;8.344;2023-04-25T06:33:00;93567.69;;;6.16;76.41
37972;BME280;23794;48.234;8.344;2023-04-25T06:35:28;93576.25;;;6.29;75.56
37972;BME280;23794;48.234;8.344;2023-04-25T06:37:54;93575.47;;;6.36;75.68
37972;BME280;23794;48.234;8.344;2023-04-25T06:40:23;93575.09;;;6.48;75.17
37972;BME280;23794;48.234;8.344;2023-04-25T06:42:49;93576.25;;;6.54;74.79
37972;BME280;23794;48.234;8.344;2023-04-25T06:45:31;93578.56;;;6.49;74.76
37972;BME280;23794;48.234;8.344;2023-04-25T06:47:58;93577.41;;;6.28;74.99
37972;BME280;23794;48.234;8.344;2023-04-25T06:50:25;93577.00;;;6.19;75.61
37972;BME280;23794;48.234;8.344;2023-04-25T06:52:51;93573.13;;;6.09;76.26
37972;BME280;23794;48.234;8.344;2023-04-25T06:55:19;93586.72;;;6.12;75.97
37972;BME280;23794;48.234;8.344;2023-04-25T06:58:09;93589.84;;;6.04;76.49
37972;BME280;23794;48.234;8.344;2023-04-25T07:00:50;93596.41;;;5.85;76.51
37972;BME280;23794;48.234;8.344;2023-04-25T07:03:19;93606.88;;;5.82;76.35
37972;BME280;23794;48.234;8.344;2023-04-25T07:05:49;93607.97;;;5.53;75.77
37972;BME280;23794;48.234;8.344;2023-04-25T07:08:17;93615.63;;;5.29;75.66
37972;BME280;23794;48.234;8.344;2023-04-25T07:10:43;93615.16;;;5.12;76.60
37972;BME280;23794;48.234;8.344;2023-04-25T07:13:11;93626.69;;;4.98;76.44
37972;BME280;23794;48.234;8.344;2023-04-25T07:15:37;93624.69;;;4.88;75.80
37972;BME280;23794;48.234;8.344;2023-04-25T07:18:05;93647.03;;;4.67;75.94
37972;BME280;23794;48.234;8.344;2023-04-25T07:20:32;93645.41;;;4.55;76.44
37972;BME280;23794;48.234;8.344;2023-04-25T07:22:59;93641.34;;;4.34;77.75
37972;BME280;23794;48.234;8.344;2023-04-25T07:25:26;93643.34;;;4.41;77.34
37972;BME280;23794;48.234;8.344;2023-04-25T07:27:53;93641.72;;;4.33;76.64
37972;BME280;23794;48.234;8.344;2023-04-25T07:30:20;93652.84;;;4.17;77.08
37972;BME280;23794;48.234;8.344;2023-04-25T07:32:47;93651.63;;;4.14;76.65
37972;BME280;23794;48.234;8.344;2023-04-25T07:35:14;93658.97;;;4.14;77.35
37972;BME280;23794;48.234;8.344;2023-04-25T07:37:40;93657.75;;;4.04;76.58
37972;BME280;23794;48.234;8.344;2023-04-25T07:40:11;93666.59;;;4.01;76.43
37972;BME280;23794;48.234;8.344;2023-04-25T07:42:44;93674.81;;;4.08;76.42
37972;BME280;23794;48.234;8.344;2023-04-25T07:45:13;93671.56;;;3.95;75.48
37972;BME280;23794;48.234;8.344;2023-04-25T07:47:40;93673.09;;;3.92;76.01
37972;BME280;23794;48.234;8.344;2023-04-25T07:50:07;93673.84;;;3.89;75.57
37972;BME280;23794;48.234;8.344;2023-04-25T07:52:34;93678.75;;;3.76;75.39
37972;BME280;23794;48.234;8.344;2023-04-25T07:55:11;93695.22;;;3.60;74.74
37972;BME280;23794;48.234;8.344;2023-04-25T07:57:55;93699.50;;;3.65;75.25
37972;BME280;23794;48.234;8.344;2023-04-25T08:00:22;93703.28;;;3.57;75.00
37972;BME280;23794;48.234;8.344;2023-04-25T08:02:56;93711.25;;;3.46;74.76
37972;BME280;23794;48.234;8.344;2023-04-25T08:05:24;93713.66;;;3.51;74.97
37972;BME280;23794;48.234;8.344;2023-04-25T08:07:58;93720.09;;;3.73;76.09
37972;BME280;23794;48.234;8.344;2023-04-25T08:10:26;93715.97;;;3.83;74.74
37972;BME280;23794;48.234;8.344;2023-04-25T08:12:53;93719.88;;;3.86;74.63
37972;BME280;23794;48.234;8.344;2023-04-25T08:15:20;93722.66;;;3.93;74.26
37972;BME280;23794;48.234;8.344;2023-04-25T08:17:47;93719.72;;;4.09;73.99
37972;BME280;23794;48.234;8.344;2023-04-25T08:20:14;93734.69;;;4.33;73.50
37972;BME280;23794;48.234;8.344;2023-04-25T08:22:43;93733.38;;;4.58;73.31
37972;BME280;23794;48.234;8.344;2023-04-25T08:25:25;93738.97;;;4.76;71.57
37972;BME280;23794;48.234;8.344;2023-04-25T08:27:52;93742.91;;;4.85;72.54
37972;BME280;23794;48.234;8.344;2023-04-25T08:30:21;93744.50;;;4.90;71.78
37972;BME280;23794;48.234;8.344;2023-04-25T08:32:49;93749.56;;;4.92;72.17
37972;BME280;23794;48.234;8.344;2023-04-25T08:35:29;93754.41;;;4.68;72.61
37972;BME280;23794;48.234;8.344;2023-04-25T08:37:56;93756.19;;;4.49;72.34
37972;BME280;23794;48.234;8.344;2023-04-25T08:40:26;93765.88;;;4.50;73.43
37972;BME280;23794;48.234;8.344;2023-04-25T08:43:00;93762.44;;;4.57;73.39
37972;BME280;23794;48.234;8.344;2023-04-25T08:45:31;93768.66;;;4.58;73.38
37972;BME280;23794;48.234;8.344;2023-04-25T08:47:59;93771.97;;;4.40;73.48
37972;BME280;23794;48.234;8.344;2023-04-25T08:50:27;93774.22;;;4.34;73.57
37972;BME280;23794;48.234;8.344;2023-04-25T08:52:57;93777.63;;;4.24;73.14
37972;BME280;23794;48.234;8.344;2023-04-25T08:55:28;93784.72;;;4.36;73.90
37972;BME280;23794;48.234;8.344;2023-04-25T08:57:59;93784.81;;;4.47;73.56
37972;BME280;23794;48.234;8.344;2023-04-25T09:00:26;93794.19;;;4.53;72.75
37972;BME280;23794;48.234;8.344;2023-04-25T09:02:55;93793.06;;;4.58;72.18
37972;BME280;23794;48.234;8.344;2023-04-25T09:05:24;93799.59;;;4.53;72.41
37972;BME280;23794;48.234;8.344;2023-04-25T09:07:52;93805.53;;;4.62;72.47
37972;BME280;23794;48.234;8.344;2023-04-25T09:10:19;93808.47;;;4.87;72.84
37972;BME280;23794;48.234;8.344;2023-04-25T09:13:08;93803.94;;;4.99;73.38
37972;BME280;23794;48.234;8.344;2023-04-25T09:16:02;93814.47;;;5.04;72.07
37972;BME280;23794;48.234;8.344;2023-04-25T09:18:47;93821.06;;;5.07;72.44
37972;BME280;23794;48.234;8.344;2023-04-25T09:21:15;93817.78;;;5.35;72.26
37972;BME280;23794;48.234;8.344;2023-04-25T09:23:46;93820.28;;;5.55;71.91
37972;BME280;23794;48.234;8.344;2023-04-25T09:26:18;93836.00;;;5.83;70.67
37972;BME280;23794;48.234;8.344;2023-04-25T09:28:46;93829.84;;;5.97;69.75
37972;BME280;23794;48.234;8.344;2023-04-25T09:31:23;93832.28;;;6.20;68.62
37972;BME280;23794;48.234;8.344;2023-04-25T09:34:00;93833.88;;;6.25;70.07
37972;BME280;23794;48.234;8.344;2023-04-25T09:36:39;93832.41;;;6.45;70.01
37972;BME280;23794;48.234;8.344;2023-04-25T09:39:21;93835.97;;;6.71;68.25
37972;BME280;23794;48.234;8.344;2023-04-25T09:42:03;93837.53;;;6.80;68.52
37972;BME280;23794;48.234;8.344;2023-04-25T09:44:30;93840.69;;;6.96;69.00
37972;BME280;23794;48.234;8.344;2023-04-25T09:46:57;93840.63;;;6.74;68.42
37972;BME280;23794;48.234;8.344;2023-04-25T09:49:28;93851.44;;;6.45;69.54
37972;BME280;23794;48.234;8.344;2023-04-25T09:52:04;93861.22;;;6.57;69.57
37972;BME280;23794;48.234;8.344;2023-04-25T09:54:48;93857.34;;;6.69;68.87
37972;BME280;23794;48.234;8.344;2023-04-25T09:57:23;93863.22;;;6.86;69.28
37972;BME280;23794;48.234;8.344;2023-04-25T09:59:55;93860.16;;;7.05;69.29
37972;BME280;23794;48.234;8.344;2023-04-25T10:02:25;93866.03;;;7.18;67.45
37972;BME280;23794;48.234;8.344;2023-04-25T10:04:56;93862.09;;;7.05;67.87
37972;BME280;23794;48.234;8.344;2023-04-25T10:07:30;93856.28;;;7.06;67.34
37972;BME280;23794;48.234;8.344;2023-04-25T10:10:04;93861.75;;;7.43;69.19
37972;BME280;23794;48.234;8.344;2023-04-25T10:12:32;93850.09;;;7.71;68.03
37972;BME280;23794;48.234;8.344;2023-04-25T10:14:59;93850.84;;;7.86;66.53
37972;BME280;23794;48.234;8.344;2023-04-25T10:17:27;93858.25;;;7.89;67.00
37972;BME280;23794;48.234;8.344;2023-04-25T10:19:56;93854.72;;;7.96;65.79
37972;BME280;23794;48.234;8.344;2023-04-25T10:22:29;93869.97;;;7.53;66.16
37972;BME280;23794;48.234;8.344;2023-04-25T10:24:57;93869.16;;;7.42;67.45
37972;BME280;23794;48.234;8.344;2023-04-25T10:27:27;93866.47;;;7.53;67.15
37972;BME280;23794;48.234;8.344;2023-04-25T10:30:23;93869.19;;;7.49;66.48
37972;BME280;23794;48.234;8.344;2023-04-25T10:32:49;93871.13;;;7.67;68.09
37972;BME280;23794;48.234;8.344;2023-04-25T10:35:18;93876.97;;;7.54;67.14
37972;BME280;23794;48.234;8.344;2023-04-25T10:40:24;93886.72;;;7.59;66.60
37972;BME280;23794;48.234;8.344;2023-04-25T10:42:54;93878.91;;;7.57;68.63
37972;BME280;23794;48.234;8.344;2023-04-25T10:45:22;93866.81;;;7.69;67.29
37972;BME280;23794;48.234;8.344;2023-04-25T10:47:48;93872.66;;;7.82;66.71
37972;BME280;23794;48.234;8.344;2023-04-25T10:50:15;93872.66;;;7.82;67.31
37972;BME280;23794;48.234;8.344;2023-04-25T10:52:45;93875.00;;;7.77;67.19
37972;BME280;23794;48.234;8.344;2023-04-25T10:55:12;93875.81;;;7.55;67.26
37972;BME280;23794;48.234;8.344;2023-04-25T10:57:45;93882.03;;;7.56;68.02
37972;BME280;23794;48.234;8.344;2023-04-25T11:00:17;93877.72;;;7.44;66.83
37972;BME280;23794;48.234;8.344;2023-04-25T11:02:53;93878.13;;;7.57;68.65
37972;BME280;23794;48.234;8.344;2023-04-25T11:08:10;93873.03;;;8.06;68.13
37972;BME280;23794;48.234;8.344;2023-04-25T11:10:40;93871.06;;;8.25;66.69
37972;BME280;23794;48.234;8.344;2023-04-25T11:13:06;93869.47;;;8.27;67.51
37972;BME280;23794;48.234;8.344;2023-04-25T11:15:33;93867.19;;;8.00;67.92
37972;BME280;23794;48.234;8.344;2023-04-25T11:17:59;93869.13;;;8.14;67.55
37972;BME280;23794;48.234;8.344;2023-04-25T11:20:27;93873.38;;;8.30;66.94
37972;BME280;23794;48.234;8.344;2023-04-25T11:22:57;93876.81;;;8.45;65.70
37972;BME280;23794;48.234;8.344;2023-04-25T11:25:27;93875.25;;;8.55;66.14
37972;BME280;23794;48.234;8.344;2023-04-25T11:27:55;93882.63;;;8.58;65.70
37972;BME280;23794;48.234;8.344;2023-04-25T11:30:24;93879.84;;;8.72;64.74
37972;BME280;23794;48.234;8.344;2023-04-25T11:32:52;93870.44;;;8.77;65.30
37972;BME280;23794;48.234;8.344;2023-04-25T11:35:20;93872.94;;;9.20;66.15
37972;BME280;23794;48.234;8.344;2023-04-25T11:37:49;93877.56;;;9.34;64.30
37972;BME280;23794;48.234;8.344;2023-04-25T11:40:16;93865.88;;;9.30;64.24
37972;BME280;23794;48.234;8.344;2023-04-25T11:42:44;93872.19;;;9.16;63.40
37972;BME280;23794;48.234;8.344;2023-04-25T11:45:12;93870.31;;;9.02;63.49
37972;BME280;23794;48.234;8.344;2023-04-25T11:47:39;93874.94;;;9.16;64.06
37972;BME280;23794;48.234;8.344;2023-04-25T11:50:07;93881.09;;;9.35;63.01
37972;BME280;23794;48.234;8.344;2023-04-25T11:52:41;93880.66;;;9.43;62.45
37972;BME280;23794;48.234;8.344;2023-04-25T11:55:10;93887.69;;;9.41;60.94
37972;BME280;23794;48.234;8.344;2023-04-25T11:57:39;93889.38;;;9.17;62.47
37972;BME280;23794;48.234;8.344;2023-04-25T12:00:11;93893.81;;;8.89;64.43
37972;BME280;23794;48.234;8.344;2023-04-25T12:02:44;93895.66;;;9.10;64.50
37972;BME280;23794;48.234;8.344;2023-04-25T12:05:12;93895.22;;;9.19;65.08
37972;BME280;23794;48.234;8.344;2023-04-25T12:07:57;93888.53;;;9.27;63.12
37972;BME280;23794;48.234;8.344;2023-04-25T12:10:24;93887.44;;;9.13;62.00
37972;BME280;23794;48.234;8.344;2023-04-25T12:12:52;93884.19;;;9.33;63.19
37972;BME280;23794;48.234;8.344;2023-04-25T12:15:24;93889.16;;;9.56;63.81
37972;BME280;23794;48.234;8.344;2023-04-25T12:17:53;93881.19;;;9.73;61.46
37972;BME280;23794;48.234;8.344;2023-04-25T12:20:24;93884.06;;;10.04;62.94
37972;BME280;23794;48.234;8.344;2023-04-25T12:22:52;93889.81;;;10.17;62.47
37972;BME280;23794;48.234;8.344;2023-04-25T12:25:38;93893.06;;;10.04;62.99
37972;BME280;23794;48.234;8.344;2023-04-25T12:28:16;93897.00;;;10.00;61.08
37972;BME280;23794;48.234;8.344;2023-04-25T12:31:04;93901.59;;;9.65;60.46
37972;BME280;23794;48.234;8.344;2023-04-25T12:33:34;93900.16;;;9.49;62.99
37972;BME280;23794;48.234;8.344;2023-04-25T12:36:02;93908.41;;;9.38;63.33
37972;BME280;23794;48.234;8.344;2023-04-25T12:38:39;93899.75;;;9.51;62.09
37972;BME280;23794;48.234;8.344;2023-04-25T12:41:06;93907.44;;;9.67;63.15
37972;BME280;23794;48.234;8.344;2023-04-25T12:43:33;93903.78;;;9.84;61.24
37972;BME280;23794;48.234;8.344;2023-04-25T12:46:00;93904.47;;;10.37;61.78
37972;BME280;23794;48.234;8.344;2023-04-25T12:48:26;93903.38;;;9.86;59.82
37972;BME280;23794;48.234;8.344;2023-04-25T12:50:53;93909.09;;;10.02;62.10
37972;BME280;23794;48.234;8.344;2023-04-25T12:53:21;93906.41;;;9.99;59.58
37972;BME280;23794;48.234;8.344;2023-04-25T12:55:48;93910.69;;;10.00;61.45
37972;BME280;23794;48.234;8.344;2023-04-25T12:58:16;93914.88;;;10.12;59.72
37972;BME280;23794;48.234;8.344;2023-04-25T13:00:45;93917.34;;;9.99;59.86
37972;BME280;23794;48.234;8.344;2023-04-25T13:03:12;93911.31;;;10.56;60.60
37972;BME280;23794;48.234;8.344;2023-04-25T13:05:39;93917.91;;;10.94;61.33
37972;BME280;23794;48.234;8.344;2023-04-25T13:08:06;93911.00;;;10.85;61.88
37972;BME280;23794;48.234;8.344;2023-04-25T13:10:32;93916.69;;;10.64;59.40
37972;BME280;23794;48.234;8.344;2023-04-25T13:13:00;93922.88;;;10.71;60.31
37972;BME280;23794;48.234;8.344;2023-04-25T13:15:27;93915.97;;;11.56;56.76
37972;BME280;23794;48.234;8.344;2023-04-25T13:17:54;93915.00;;;11.94;54.95
37972;BME280;23794;48.234;8.344;2023-04-25T13:20:21;93917.31;;;11.95;55.43
37972;BME280;23794;48.234;8.344;2023-04-25T13:22:48;93901.66;;;12.63;54.29
37972;BME280;23794;48.234;8.344;2023-04-25T13:25:15;93904.25;;;13.11;53.68
37972;BME280;23794;48.234;8.344;2023-04-25T13:27:42;93906.16;;;12.54;55.05
37972;BME280;23794;48.234;8.344;2023-04-25T13:30:10;93914.31;;;11.35;56.04
37972;BME280;23794;48.234;8.344;2023-04-25T13:32:38;93911.66;;;11.55;57.60
37972;BME280;23794;48.234;8.344;2023-04-25T13:35:07;93913.22;;;11.83;54.44